createdAt,value
2018-06-10T00:00:50.791Z,60.30
2018-06-10T00:03:19.041Z,60.40
2018-06-10T00:05:47.284Z,60.50
2018-06-10T00:08:15.556Z,60.70
2018-06-10T00:10:43.947Z,60.80
2018-06-10T00:13:12.228Z,60.90
2018-06-10T00:15:40.476Z,61.10
2018-06-10T00:18:08.695Z,61.30
2018-06-10T00:23:04.956Z,61.60
2018-06-10T00:25:33.224Z,61.80
2018-06-10T00:28:01.516Z,62.00
2018-06-10T00:30:29.752Z,62.30
2018-06-10T00:32:57.984Z,62.50
2018-06-10T00:37:54.235Z,63.10
2018-06-10T00:40:22.680Z,63.50
2018-06-10T00:42:50.939Z,64.00
2018-06-10T00:45:19.199Z,64.40
2018-06-10T00:47:47.448Z,64.70
2018-06-10T00:50:15.710Z,65.00
2018-06-10T00:52:43.933Z,65.00
2018-06-10T00:55:12.183Z,65.30
2018-06-10T00:57:40.403Z,65.50
2018-06-10T01:00:08.698Z,65.80
2018-06-10T01:02:36.948Z,65.90
2018-06-10T01:05:05.234Z,66.00
2018-06-10T01:07:33.464Z,66.30
2018-06-10T01:10:01.801Z,66.30
2018-06-10T01:12:30.055Z,66.60
2018-06-10T01:14:58.319Z,66.90
2018-06-10T01:17:26.561Z,67.10
2018-06-10T01:22:22.827Z,67.60
2018-06-10T01:24:51.048Z,67.80
2018-06-10T01:27:19.336Z,68.10
2018-06-10T01:29:47.585Z,68.30
2018-06-10T01:32:15.820Z,68.60
2018-06-10T01:34:44.074Z,68.80
2018-06-10T01:37:12.304Z,69.00
2018-06-10T01:39:40.728Z,69.20
2018-06-10T01:42:08.995Z,69.40
2018-06-10T01:44:37.260Z,69.40
2018-06-10T01:47:05.513Z,69.50
2018-06-10T01:49:33.783Z,70.00
2018-06-10T01:52:02.049Z,69.90
2018-06-10T01:54:30.288Z,70.00
2018-06-10T01:56:58.548Z,70.10
2018-06-10T01:59:26.824Z,70.40
2018-06-10T02:04:23.053Z,70.90
2018-06-10T02:06:51.306Z,71.10
2018-06-10T02:09:19.616Z,71.40
2018-06-10T02:11:47.875Z,71.50
2018-06-10T02:14:16.128Z,71.80
2018-06-10T02:16:44.394Z,71.80
2018-06-10T02:21:40.624Z,71.90
2018-06-10T02:24:08.864Z,71.90
2018-06-10T02:26:37.128Z,71.80
2018-06-10T02:29:05.376Z,71.90
2018-06-10T02:31:33.636Z,72.10
2018-06-10T02:38:57.952Z,72.30
2018-06-10T02:41:26.221Z,72.30
2018-06-10T02:43:54.482Z,72.60
2018-06-10T02:46:22.732Z,72.70
2018-06-10T02:48:50.984Z,72.80
2018-06-10T02:51:19.234Z,72.90
2018-06-10T02:53:47.471Z,73.00
2018-06-10T02:56:15.741Z,73.30
2018-06-10T02:58:43.996Z,73.60
2018-06-10T03:01:12.263Z,73.70
2018-06-10T03:03:40.496Z,73.70
2018-06-10T03:06:08.728Z,73.70
2018-06-10T03:08:36.926Z,73.80
2018-06-10T03:11:05.144Z,74.00
2018-06-10T03:13:33.405Z,74.20
2018-06-10T03:16:01.608Z,74.40
2018-06-10T03:18:29.840Z,74.50
2018-06-10T03:20:58.047Z,74.70
2018-06-10T03:23:26.291Z,74.80
2018-06-10T03:25:54.506Z,75.10
2018-06-10T03:28:22.792Z,75.20
2018-06-10T03:30:51.120Z,75.30
2018-06-10T03:33:19.353Z,75.40
2018-06-10T03:35:47.594Z,75.50
2018-06-10T03:40:43.789Z,75.40
2018-06-10T03:43:12.017Z,75.40
2018-06-10T03:48:08.236Z,75.90
2018-06-10T03:50:36.455Z,75.80
2018-06-10T03:53:05.949Z,75.90
2018-06-10T03:58:02.163Z,76.50
2018-06-10T04:00:30.489Z,76.70
2018-06-10T04:02:58.761Z,76.90
2018-06-10T04:05:26.999Z,76.80
2018-06-10T04:07:55.239Z,76.80
2018-06-10T04:12:51.444Z,77.10
2018-06-10T04:15:19.683Z,77.20
2018-06-10T04:17:47.920Z,77.30
2018-06-10T04:20:16.148Z,77.50
2018-06-10T04:22:44.362Z,77.50
2018-06-10T04:25:12.624Z,77.40
2018-06-10T04:27:40.828Z,77.50
2018-06-10T04:32:37.119Z,77.50
2018-06-10T04:35:05.382Z,77.60
2018-06-10T04:37:33.616Z,77.50
2018-06-10T04:40:01.837Z,77.40
2018-06-10T04:42:30.032Z,77.20
2018-06-10T04:44:58.284Z,77.30
2018-06-10T04:47:28.320Z,77.40
2018-06-10T04:49:57.402Z,77.50
2018-06-10T04:52:25.793Z,77.60
2018-06-10T04:54:54.053Z,77.70
2018-06-10T04:57:22.339Z,77.60
2018-06-10T04:59:50.739Z,77.60
2018-06-10T05:02:18.943Z,77.60
2018-06-10T05:07:15.148Z,77.50
2018-06-10T05:09:43.398Z,77.50
2018-06-10T05:12:11.632Z,77.60
2018-06-10T05:14:39.828Z,77.50
2018-06-10T05:17:08.070Z,78.00
2018-06-10T05:19:36.320Z,77.50
2018-06-10T05:24:32.509Z,77.50
2018-06-10T05:27:00.735Z,77.40
2018-06-10T05:31:56.977Z,77.00
2018-06-10T05:34:25.179Z,77.00
2018-06-10T05:36:53.405Z,77.00
2018-06-10T05:41:49.593Z,76.50
2018-06-10T05:44:17.792Z,76.50
2018-06-10T05:46:46.026Z,76.20
2018-06-10T05:49:14.255Z,75.80
2018-06-10T05:51:42.488Z,75.20
2018-06-10T05:54:10.732Z,75.00
2018-06-10T05:56:38.937Z,74.90
2018-06-10T05:59:07.351Z,74.80
2018-06-10T06:01:35.605Z,74.10
2018-06-10T06:04:03.818Z,73.90
2018-06-10T06:09:00.084Z,73.60
2018-06-10T06:11:28.308Z,73.50
2018-06-10T06:13:56.523Z,73.10
2018-06-10T06:16:24.736Z,73.30
2018-06-10T06:18:52.978Z,73.10
2018-06-10T06:21:21.246Z,72.80
2018-06-10T06:23:49.469Z,72.70
2018-06-10T06:26:17.687Z,72.30
2018-06-10T06:28:45.903Z,72.00
2018-06-10T06:31:14.376Z,71.80
2018-06-10T06:33:42.672Z,71.20
2018-06-10T06:36:10.923Z,70.80
2018-06-10T06:38:39.200Z,70.60
2018-06-10T06:41:07.456Z,70.20
2018-06-10T06:43:35.733Z,70.20
2018-06-10T06:46:03.987Z,70.00
2018-06-10T06:48:32.179Z,69.40
2018-06-10T06:51:00.580Z,69.10
2018-06-10T06:53:28.944Z,68.70
2018-06-10T06:55:57.301Z,68.90
2018-06-10T06:58:25.616Z,68.80
2018-06-10T07:00:53.938Z,68.40
2018-06-10T07:03:28.674Z,67.90
2018-06-10T07:05:57.190Z,68.00
2018-06-10T07:08:25.444Z,67.90
2018-06-10T07:10:53.721Z,67.40
2018-06-10T07:13:21.973Z,67.10
2018-06-10T07:15:50.260Z,67.10
2018-06-10T07:18:18.514Z,67.10
2018-06-10T07:23:14.857Z,67.50
2018-06-10T07:25:43.104Z,67.20
2018-06-10T07:28:11.310Z,67.10
2018-06-10T07:30:39.584Z,67.00
2018-06-10T07:33:07.830Z,67.40
2018-06-10T07:35:36.953Z,66.10
2018-06-10T07:38:05.571Z,65.90
2018-06-10T07:40:34.322Z,65.60
2018-06-10T07:45:31.413Z,64.90
2018-06-10T07:47:59.923Z,65.10
2018-06-10T07:50:28.455Z,65.50
2018-06-10T07:52:57.014Z,65.40
2018-06-10T07:55:25.755Z,65.30
2018-06-10T07:57:54.275Z,65.00
2018-06-10T08:00:22.815Z,64.40
2018-06-10T08:02:51.052Z,64.60
2018-06-10T08:05:19.356Z,64.60
2018-06-10T08:07:47.609Z,64.50
2018-06-10T08:10:15.859Z,64.00
2018-06-10T08:12:44.055Z,63.10
2018-06-10T08:15:12.711Z,62.50
2018-06-10T08:17:41.713Z,62.30
2018-06-10T08:20:11.226Z,62.50
2018-06-10T08:22:39.472Z,62.60
2018-06-10T08:25:07.760Z,62.40
2018-06-10T08:27:36.314Z,62.10
2018-06-10T08:30:05.508Z,61.90
2018-06-10T08:35:02.096Z,61.30
2018-06-10T08:37:30.403Z,61.40
2018-06-10T08:39:59.483Z,61.50
2018-06-10T08:42:27.939Z,61.10
2018-06-10T08:44:56.406Z,61.00
2018-06-10T08:47:24.788Z,61.10
2018-06-10T08:49:53.321Z,60.80
2018-06-10T08:54:49.726Z,60.00
2018-06-10T08:57:18.530Z,60.00
2018-06-10T08:59:46.860Z,60.30
2018-06-10T09:02:15.198Z,59.90
2018-06-10T09:04:43.596Z,59.70
2018-06-10T09:07:12.183Z,59.80
2018-06-10T09:09:40.418Z,59.60
2018-06-10T09:12:08.900Z,59.60
2018-06-10T09:17:36.663Z,59.60
2018-06-10T09:20:05.144Z,59.50
2018-06-10T09:22:33.643Z,59.20
2018-06-10T09:25:01.928Z,58.90
2018-06-10T09:27:30.480Z,59.00
2018-06-10T09:29:58.761Z,59.10
2018-06-10T09:32:27.040Z,58.60
2018-06-10T09:34:55.285Z,58.50
2018-06-10T09:37:23.520Z,58.30
2018-06-10T09:39:51.882Z,58.00
2018-06-10T09:42:20.172Z,57.90
2018-06-10T09:44:48.461Z,57.60
2018-06-10T09:47:16.676Z,57.60
2018-06-10T09:49:44.897Z,57.30
2018-06-10T09:52:13.119Z,56.90
2018-06-10T09:54:41.353Z,56.80
2018-06-10T09:57:09.626Z,56.70
2018-06-10T09:59:37.854Z,56.40
2018-06-10T10:02:06.294Z,56.00
2018-06-10T10:04:34.551Z,55.90
2018-06-10T10:09:30.991Z,56.20
2018-06-10T10:11:59.226Z,56.20
2018-06-10T10:14:27.481Z,56.30
2018-06-10T10:19:23.739Z,56.40
2018-06-10T10:21:52.108Z,56.90
2018-06-10T10:24:20.675Z,56.60
2018-06-10T10:26:48.914Z,56.10
2018-06-10T10:29:17.199Z,56.10
2018-06-10T10:31:45.477Z,56.00
2018-06-10T10:34:13.690Z,55.90
2018-06-10T10:36:41.920Z,55.70
2018-06-10T10:39:10.336Z,55.10
2018-06-10T10:41:38.583Z,55.30
2018-06-10T10:44:06.817Z,55.30
2018-06-10T10:46:35.032Z,54.70
2018-06-10T10:49:03.275Z,54.60
2018-06-10T10:51:31.529Z,54.80
2018-06-10T10:53:59.808Z,54.90
2018-06-10T10:56:28.053Z,54.60
2018-06-10T10:58:56.252Z,54.50
2018-06-10T11:01:24.504Z,54.20
2018-06-10T11:03:53.030Z,53.90
2018-06-10T11:06:21.297Z,53.30
2018-06-10T11:08:49.669Z,53.20
2018-06-10T11:11:17.861Z,53.40
2018-06-10T11:13:46.088Z,53.10
2018-06-10T11:16:14.998Z,53.20
2018-06-10T11:18:43.223Z,52.50
2018-06-10T11:21:11.462Z,51.90
2018-06-10T11:23:39.688Z,51.90
2018-06-10T11:26:07.887Z,51.40
2018-06-10T11:28:36.108Z,51.20
2018-06-10T11:31:04.766Z,50.50
2018-06-10T11:33:33.035Z,51.00
2018-06-10T11:36:01.283Z,50.80
2018-06-10T11:38:29.517Z,51.10
2018-06-10T11:40:57.764Z,50.80
2018-06-10T11:45:53.944Z,51.70
2018-06-10T11:48:22.804Z,51.10
2018-06-10T11:50:51.121Z,50.50
2018-06-10T11:53:19.516Z,50.30
2018-06-10T11:55:47.803Z,50.30
2018-06-10T11:58:16.083Z,50.40
2018-06-10T12:00:44.427Z,50.30
2018-06-10T12:03:12.681Z,49.70
2018-06-10T12:05:40.928Z,49.50
2018-06-10T12:08:09.165Z,49.20
2018-06-10T12:10:37.470Z,49.40
2018-06-10T12:13:05.709Z,49.60
2018-06-10T12:15:34.011Z,49.10
2018-06-10T12:18:02.244Z,48.40
2018-06-10T12:20:30.480Z,48.10
2018-06-10T12:22:58.701Z,48.20
2018-06-10T12:25:26.955Z,47.90
2018-06-10T12:30:23.728Z,47.60
2018-06-10T12:35:19.940Z,47.30
2018-06-10T12:37:48.174Z,47.50
2018-06-10T12:42:44.432Z,47.10
2018-06-10T12:45:12.677Z,46.00
2018-06-10T12:47:40.904Z,46.30
2018-06-10T12:50:09.146Z,46.50
2018-06-10T12:55:05.756Z,46.00
2018-06-10T12:57:34.558Z,45.80
2018-06-10T13:02:30.845Z,45.10
2018-06-10T13:04:59.101Z,44.80
2018-06-10T13:07:27.359Z,44.20
2018-06-10T13:09:55.628Z,44.30
2018-06-10T13:12:23.829Z,44.20
2018-06-10T13:17:20.072Z,44.10
2018-06-10T13:19:48.308Z,43.70
2018-06-10T13:22:16.607Z,43.60
2018-06-10T13:24:44.832Z,43.30
2018-06-10T13:27:13.042Z,43.00
2018-06-10T13:29:41.457Z,42.80
2018-06-10T13:32:09.700Z,42.50
2018-06-10T13:34:37.932Z,41.80
2018-06-10T13:39:34.132Z,42.30
2018-06-10T13:42:02.395Z,41.20
2018-06-10T13:44:30.612Z,41.50
2018-06-10T13:51:54.928Z,39.60
2018-06-10T13:54:23.164Z,38.00
2018-06-10T13:56:51.472Z,36.00
2018-06-10T13:59:19.733Z,34.30
2018-06-10T14:01:47.970Z,30.80
2018-06-10T14:04:16.180Z,30.70
2018-06-10T14:06:44.421Z,30.20
2018-06-10T14:09:12.644Z,28.70
2018-06-10T14:11:40.864Z,28.80
2018-06-10T14:14:09.125Z,28.30
2018-06-10T14:16:37.405Z,27.50
2018-06-10T14:19:05.668Z,27.50
2018-06-10T14:24:01.908Z,27.60
2018-06-10T14:26:30.150Z,26.60
2018-06-10T14:28:58.425Z,25.90
2018-06-10T14:31:26.611Z,26.00
2018-06-10T14:33:54.856Z,26.60
2018-06-10T14:36:23.069Z,27.90
2018-06-10T14:38:51.326Z,27.30
2018-06-10T14:41:19.578Z,27.20
2018-06-10T14:46:15.787Z,27.60
2018-06-10T14:48:44.063Z,26.70
2018-06-10T14:51:12.307Z,27.30
2018-06-10T14:53:40.563Z,28.80
2018-06-10T14:58:36.776Z,26.90
2018-06-10T15:01:04.976Z,26.20
2018-06-10T15:03:33.202Z,26.10
2018-06-10T15:06:01.465Z,26.10
2018-06-10T15:08:29.737Z,24.80
2018-06-10T15:10:57.989Z,23.70
2018-06-10T15:13:26.204Z,23.50
2018-06-10T15:15:54.429Z,22.60
2018-06-10T15:18:22.665Z,22.50
2018-06-10T15:20:51.074Z,22.00
2018-06-10T15:23:19.320Z,21.90
2018-06-10T15:25:47.615Z,21.90
2018-06-10T15:28:15.855Z,21.80
2018-06-10T15:30:44.090Z,21.90
2018-06-10T15:33:12.342Z,21.80
2018-06-10T15:35:40.539Z,21.60
2018-06-10T15:38:08.747Z,21.50
2018-06-10T15:40:37.602Z,22.30
2018-06-10T15:43:05.852Z,23.80
2018-06-10T15:45:34.048Z,25.50
2018-06-10T15:48:02.308Z,26.90
2018-06-10T15:50:30.621Z,27.30
2018-06-10T15:52:58.866Z,27.40
2018-06-10T15:55:27.120Z,27.50
2018-06-10T15:57:55.346Z,27.30
2018-06-10T16:00:23.588Z,27.10
2018-06-10T16:02:51.820Z,27.40
2018-06-10T16:05:20.098Z,28.00
2018-06-10T16:07:48.304Z,28.70
2018-06-10T16:10:16.555Z,29.10
2018-06-10T16:12:44.803Z,29.90
2018-06-10T16:15:13.015Z,30.90
2018-06-10T16:17:41.287Z,31.60
2018-06-10T16:20:09.704Z,32.30
2018-06-10T16:22:38.024Z,32.60
2018-06-10T16:25:06.849Z,33.60
2018-06-10T16:27:35.097Z,33.50
2018-06-10T16:30:03.405Z,34.10
2018-06-10T16:32:31.624Z,34.60
2018-06-10T16:37:27.883Z,34.90
2018-06-10T16:39:56.201Z,35.20
2018-06-10T16:42:24.473Z,35.20
2018-06-10T16:44:52.707Z,35.50
2018-06-10T16:47:20.928Z,35.80
2018-06-10T16:49:49.387Z,36.50
2018-06-10T16:52:17.636Z,36.60
2018-06-10T16:57:13.861Z,36.80
2018-06-10T16:59:45.152Z,36.70
2018-06-10T17:02:13.404Z,37.00
2018-06-10T17:07:09.657Z,37.40
2018-06-10T17:09:38.234Z,37.70
2018-06-10T17:12:06.474Z,37.80
2018-06-10T17:14:34.709Z,38.20
2018-06-10T17:17:03.411Z,38.40
2018-06-10T17:19:31.843Z,38.40
2018-06-10T17:22:00.083Z,38.60
2018-06-10T17:24:28.384Z,38.20
2018-06-10T17:26:56.775Z,36.60
2018-06-10T17:29:25.317Z,35.30
2018-06-10T17:31:53.571Z,34.90
2018-06-10T17:34:21.841Z,35.00
2018-06-10T17:36:50.095Z,35.50
2018-06-10T17:41:46.359Z,36.30
2018-06-10T17:44:14.816Z,36.40
2018-06-10T17:46:43.019Z,36.70
2018-06-10T17:49:11.385Z,36.00
2018-06-10T17:51:39.631Z,34.80
2018-06-10T17:54:07.839Z,33.40
2018-06-10T17:59:04.024Z,31.70
2018-06-10T18:01:32.277Z,30.90
2018-06-10T18:04:00.672Z,30.00
2018-06-10T18:06:28.899Z,30.40
2018-06-10T18:08:57.168Z,30.60
2018-06-10T18:11:25.399Z,30.50
2018-06-10T18:13:53.644Z,30.70
2018-06-10T18:16:21.899Z,30.80
2018-06-10T18:18:50.139Z,32.20
2018-06-10T18:21:18.390Z,33.70
2018-06-10T18:23:46.620Z,35.10
2018-06-10T18:26:14.872Z,36.30
2018-06-10T18:28:43.132Z,37.40
2018-06-10T18:31:11.376Z,38.30
2018-06-10T18:33:40.291Z,39.10
2018-06-10T18:36:08.539Z,40.00
2018-06-10T18:38:37.789Z,40.40
2018-06-10T18:41:06.275Z,41.10
2018-06-10T18:43:36.869Z,41.60
2018-06-10T18:46:06.388Z,42.10
2018-06-10T18:48:34.866Z,42.80
2018-06-10T18:51:06.724Z,43.30
2018-06-10T18:53:42.145Z,43.90
2018-06-10T18:56:10.551Z,44.50
2018-06-10T18:58:38.842Z,45.00
2018-06-10T19:01:07.310Z,45.30
2018-06-10T19:03:35.798Z,45.60
2018-06-10T19:06:04.318Z,45.70
2018-06-10T19:08:32.735Z,46.00
2018-06-10T19:11:01.195Z,46.30
2018-06-10T19:13:29.424Z,46.50
2018-06-10T19:15:58.459Z,46.80
2018-06-10T19:18:26.819Z,47.10
2018-06-10T19:20:55.164Z,47.40
2018-06-10T19:23:23.515Z,47.50
2018-06-10T19:25:52.011Z,47.70
2018-06-10T19:28:20.241Z,48.00
2018-06-10T19:30:48.768Z,48.20
2018-06-10T19:33:17.193Z,48.50
2018-06-10T19:35:45.638Z,48.80
2018-06-10T19:38:14.166Z,49.00
2018-06-10T19:40:42.616Z,49.30
2018-06-10T19:43:11.844Z,49.50
2018-06-10T19:45:40.144Z,50.60
2018-06-10T19:48:08.635Z,50.20
2018-06-10T19:50:37.135Z,50.50
2018-06-10T19:53:06.158Z,50.80
2018-06-10T19:55:34.587Z,51.00
2018-06-10T19:58:03.282Z,51.10
2018-06-10T20:00:32.421Z,51.80
2018-06-10T20:03:01.002Z,51.40
2018-06-10T20:05:29.864Z,51.60
2018-06-10T20:07:59.136Z,51.80
2018-06-10T20:10:28.361Z,52.00
2018-06-10T20:12:56.976Z,52.00
2018-06-10T20:15:26.062Z,52.10
2018-06-10T20:17:54.447Z,52.30
2018-06-10T20:20:22.962Z,52.50
2018-06-10T20:22:51.306Z,52.60
2018-06-10T20:27:47.512Z,53.00
2018-06-10T20:30:15.809Z,53.20
2018-06-10T20:32:43.998Z,53.40
2018-06-10T20:35:12.242Z,53.50
2018-06-10T20:37:40.445Z,53.80
2018-06-10T20:40:09.412Z,54.10
2018-06-10T20:42:37.660Z,54.20
2018-06-10T20:45:07.099Z,54.30
2018-06-10T20:47:35.332Z,54.50
2018-06-10T20:50:03.593Z,54.60
2018-06-10T20:55:00.218Z,55.00
2018-06-10T20:57:28.448Z,55.10
2018-06-10T20:59:56.673Z,55.40
2018-06-10T21:02:24.895Z,55.50
2018-06-10T21:04:53.106Z,55.50
2018-06-10T21:07:21.349Z,55.50
2018-06-10T21:12:17.643Z,55.80
2018-06-10T21:14:45.877Z,56.00
2018-06-10T21:17:14.056Z,56.00
2018-06-10T21:19:42.303Z,56.10
2018-06-10T21:24:38.507Z,56.40
2018-06-10T21:27:06.743Z,56.40
2018-06-10T21:32:02.945Z,57.00
2018-06-10T21:34:31.179Z,56.40
2018-06-10T21:39:27.571Z,56.60
2018-06-10T21:41:55.817Z,56.70
2018-06-10T21:44:24.056Z,56.80
2018-06-10T21:49:20.259Z,57.00
2018-06-10T21:51:48.463Z,57.10
2018-06-10T21:54:16.672Z,57.20
2018-06-10T21:56:44.904Z,57.40
2018-06-10T21:59:13.163Z,57.40
2018-06-10T22:01:41.372Z,57.50
2018-06-10T22:04:09.607Z,57.50
2018-06-10T22:06:37.856Z,57.60
2018-06-10T22:09:07.488Z,57.70
2018-06-10T22:11:35.953Z,57.70
2018-06-10T22:14:04.189Z,57.90
2018-06-10T22:16:32.385Z,58.10
2018-06-10T22:19:00.604Z,58.20
2018-06-10T22:21:28.840Z,58.20
2018-06-10T22:23:57.060Z,58.40
2018-06-10T22:26:25.300Z,58.30
2018-06-10T22:28:53.531Z,58.40
2018-06-10T22:31:21.731Z,58.50
2018-06-10T22:36:17.980Z,58.80
2018-06-10T22:38:46.211Z,59.00
2018-06-10T22:41:14.403Z,59.20
2018-06-10T22:43:42.664Z,59.50
2018-06-10T22:46:10.899Z,59.60
2018-06-10T22:48:39.105Z,59.80
2018-06-10T22:51:07.337Z,59.90
2018-06-10T22:56:38.407Z,60.20
2018-06-10T22:59:06.610Z,60.20
2018-06-10T23:01:34.872Z,60.60
2018-06-10T23:04:03.085Z,60.70
2018-06-10T23:06:31.356Z,60.90
2018-06-10T23:08:59.597Z,61.10
2018-06-10T23:11:27.783Z,61.30
2018-06-10T23:13:56.023Z,61.50
2018-06-10T23:18:52.283Z,62.00
2018-06-10T23:21:20.472Z,62.10
2018-06-10T23:23:48.664Z,62.30
2018-06-10T23:26:16.872Z,62.40
2018-06-10T23:28:45.072Z,62.50
2018-06-10T23:31:13.300Z,62.50
2018-06-10T23:33:41.512Z,62.50
2018-06-10T23:36:09.733Z,62.80
2018-06-10T23:38:37.948Z,62.90
2018-06-10T23:41:06.147Z,63.10
2018-06-10T23:43:34.398Z,63.20
2018-06-10T23:46:02.647Z,63.30
2018-06-10T23:48:30.860Z,63.40
2018-06-10T23:50:59.486Z,63.60
2018-06-10T23:53:27.715Z,63.50
2018-06-10T23:55:55.934Z,63.60
2018-06-10T23:58:24.173Z,64.50
